Aérodrome :
LOGIN :

S'inscrire | Disclaimer

   EN    FR    IT 

 










Légende :    VFR   VFR Marginal   IFR   IFR Intensif   IFR Très Intensif
Visi : 
Plafond : 
>= 8 km
>= 3000ft
5 à 8 km
1000 à 3000 ft
1500m à 5 km
500 à 1000 ft
800 à 1500m
200 à 500 ft
< 800m
< 200 ft
Symboles :   Orages  Brouillard  Fortes neiges  Fortes précipitations  Vent > 20 kt
SIGMETs :   Divers  Orages  Givrage  Turbulence  Onde Orograph.  Cendres Volcan.







- Altitude de l'aérodrome : 26 ft
- Code IATA : BIA
- Voir les cartes d'approche


LFKB - Bastia

DERNIER METAR :
  • 140800Z AUTO 27003KT 220V320 CAVOK 09/06 Q1011 TEMPO 25015G25KT

METARs EXPIRÉS :
  • 140730Z AUTO 23003KT 200V260 9999 FEW066 SCT170 07/04 Q1011 TEMPO 25015G25KT
  • 140700Z AUTO VRB02KT 9999 FEW068 SCT180 BKN200 07/03 Q1011 NOSIG
  • 140630Z AUTO 00000KT 9999 FEW074 BKN180 BKN250 07/03 Q1011 NOSIG
  • 140600Z AUTO 21003KT 160V260 9999 FEW072 SCT160 BKN250 07/03 Q1011 NOSIG
  • 140530Z AUTO VRB02KT 9999 FEW084 06/03 Q1012 NOSIG

TAF TAF LFKB
Valide du 14 à 03h jusqu'au 15 à 03h UTC


140200Z 1403/1503 23008KT 9999 FEW040
TEMPO 1409/1414 25015G25KT TX17/1413Z TN07/1404Z
ATIS : +33 4 95 59 19 40
Pas de NOTAMs connus pour ce terrain.
2 SIGMETs publiés pour la FIR Marseille (LFMM) :
 
Turbulence forte
LFMM SIGMET 3 VALID 140600/141000 LFPW
LFMM MARSEILLE FIR/UIR SEV TURB FCST WI N4345 E00730 - N4315 E00945 - N4115 E00945 - N4115 E00845 - N4230 E00830 - N4330 E00645 - N4345 E00730 SFC/FL070 STNR INTSF=
Onde orographique forte
LFMM SIGMET 2 VALID 140600/140900 LFPW
LFMM MARSEILLE FIR/UIR SEV MTW FCST E OF E00900 SFC/FL320 STNR NC=



MET'MAP, la Météo Aéronautique d'un coup d'oeil ! - Copyright ORBIFLY Décembre 2007 - Disclaimer

ORBIFLY MET'MAP TEAM :

Programmation & Développement : Alexandra Zaïnal
Conception & Développement : Baudouin d'Aumeries
Co-Programmation & Développement : Marc-Olivier Méhu
Soutien technique & logistique : Manuel Goepfert

Contact : metmap@orbifly.com




SOURCES & CREDITS :

   NOAA